Time;durP1;ratioP1;P1;durP2;ratioP2;P2;SDS_P1;SDS_P2;PMS_P1;PMS_P2;Temp;Humidity;BMP_temperature;BMP_pressure;BME280_temperature;BME280_humidity;BME280_pressure;Samples;Min_cycle;Max_cycle;Signal;HPM_P1;HPM_P2
2023/09/09 00:01:42;;;;;;;9.68;7.13;;;15.70;99.90;;;-144.05;70.34;56878.56;5007667;28;20094;-83
2023/09/09 00:04:09;;;;;;;9.57;7.78;;;15.50;99.90;;;-144.05;70.49;56884.94;5014949;28;20112;-81
2023/09/09 00:06:35;;;;;;;12.20;6.57;;;15.90;99.90;;;-144.05;69.85;56882.81;4999151;28;20037;-82
2023/09/09 00:09:03;;;;;;;10.18;6.50;;;;;;;-144.05;69.28;56893.44;5015971;28;20022;-81
2023/09/09 00:11:30;;;;;;;11.93;6.95;;;18.40;99.90;;;-144.05;69.31;56897.69;5014692;28;20037;-82
2023/09/09 00:13:56;;;;;;;9.82;7.30;;;19.20;99.90;;;-144.05;69.93;56874.31;5017312;28;20054;-81
2023/09/09 00:16:22;;;;;;;9.80;6.53;;;19.20;99.90;;;-144.05;70.06;56882.81;5019055;28;20030;-83
2023/09/09 00:18:48;;;;;;;9.95;6.68;;;19.20;99.90;;;-144.05;70.49;56893.44;5019493;28;20477;-83
2023/09/09 00:21:14;;;;;;;10.82;6.50;;;19.40;99.90;;;-144.05;71.08;56893.44;5015577;28;20030;-82
2023/09/09 00:23:40;;;;;;;7.88;6.85;;;18.70;99.90;;;-144.05;71.89;56887.06;5014027;28;20030;-81
2023/09/09 00:26:06;;;;;;;12.57;7.63;;;15.30;99.90;;;-144.05;72.29;56863.69;5015633;28;20073;-82
2023/09/09 00:28:33;;;;;;;9.02;7.03;;;17.70;99.90;;;-144.05;72.47;56887.06;4997857;28;20466;-83
2023/09/09 00:30:59;;;;;;;7.97;6.20;;;;;;;-144.05;72.87;56874.31;5015226;28;20022;-82
2023/09/09 00:33:25;;;;;;;11.30;7.03;;;14.80;99.90;;;-144.05;73.12;56878.56;5015207;28;20084;-80
2023/09/09 00:35:50;;;;;;;8.88;7.45;;;18.70;99.90;;;-144.05;73.43;56859.47;5014998;28;20029;-81
2023/09/09 00:38:17;;;;;;;11.02;7.32;;;;;;;-144.05;73.94;56865.81;5015467;28;20064;-82
2023/09/09 00:41:13;;;;;;;9.18;6.60;;;14.70;99.90;;;-144.05;74.26;56880.69;4997220;28;20073;-81
2023/09/09 00:43:40;;;;;;;10.18;7.13;;;17.30;99.90;;;-144.05;74.56;56897.69;5014897;28;20034;-82
2023/09/09 00:46:15;;;;;;;7.40;6.13;;;18.50;99.90;;;-144.05;74.80;56889.19;5015546;28;20049;-80
2023/09/09 00:48:41;;;;;;;9.75;7.70;;;18.50;99.90;;;-144.05;75.25;56874.31;5014915;28;20493;-80
2023/09/09 00:51:12;;;;;;;7.93;6.78;;;18.40;99.90;;;-144.05;75.63;56878.56;5013602;28;20496;-81
2023/09/09 00:53:41;;;;;;;7.45;6.18;;;14.00;99.90;;;-144.05;75.95;56901.94;5015427;28;20038;-81
2023/09/09 00:56:09;;;;;;;15.68;7.15;;;18.00;99.90;;;-144.05;76.21;56887.06;5013877;28;20038;-80
2023/09/09 00:58:35;;;;;;;10.60;6.90;;;13.90;99.90;;;-144.05;76.41;56893.44;5014846;28;20549;-82
2023/09/09 01:01:03;;;;;;;9.75;6.20;;;16.90;99.90;;;-144.05;76.74;56884.94;5005286;28;20026;-82
2023/09/09 01:03:30;;;;;;;7.80;6.22;;;;;;;-144.05;76.76;56861.56;4993670;28;20045;-80
2023/09/09 01:05:57;;;;;;;8.65;6.32;;;17.90;99.90;;;-144.05;77.09;56874.31;4995201;28;20027;-83
2023/09/09 01:08:29;;;;;;;10.30;7.28;;;13.80;99.90;;;-144.05;77.35;56870.06;4994967;28;20034;-79
2023/09/09 01:10:56;;;;;;;8.23;6.40;;;17.60;99.90;;;-144.05;77.57;56880.69;4994847;28;20030;-80
2023/09/09 01:13:23;;;;;;;8.32;6.93;;;17.60;99.90;;;-144.05;77.93;56870.06;4993052;28;20022;-80
2023/09/09 01:15:50;;;;;;;10.68;6.40;;;17.90;99.90;;;-144.05;78.06;56867.94;4995172;28;20066;-82
2023/09/09 01:18:18;;;;;;;8.60;6.80;;;17.90;99.90;;;-144.05;78.43;56882.81;4977413;28;20092;-82
2023/09/09 01:20:58;;;;;;;9.18;6.88;;;13.90;99.90;;;-144.05;78.71;56882.81;4995084;28;20031;-81
2023/09/09 01:23:24;;;;;;;11.75;7.13;;;;;;;-144.05;79.01;56855.22;4995405;28;20084;-79
2023/09/09 01:25:50;;;;;;;8.20;7.10;;;;;;;-144.05;79.22;56861.56;4995077;28;20030;-81
2023/09/09 01:28:21;;;;;;;9.40;7.18;;;17.50;99.90;;;-144.05;79.80;56880.69;4995500;28;20046;-82
2023/09/09 01:30:49;;;;;;;9.27;7.80;;;13.50;99.90;;;-144.05;80.29;56880.69;4994840;28;20030;-83
2023/09/09 01:33:16;;;;;;;13.43;8.10;;;13.70;99.90;;;-144.05;80.73;56863.69;4993806;28;20033;-82
2023/09/09 01:35:42;;;;;;;9.18;7.78;;;;;;;-144.05;80.74;56880.69;4995150;28;20033;-81
2023/09/09 01:38:08;;;;;;;8.35;6.93;;;17.70;99.90;;;-144.05;80.79;56861.56;4994646;28;20030;-82
2023/09/09 01:40:34;;;;;;;9.75;7.00;;;;;;;-144.05;80.87;56880.69;4993207;28;20040;-80
2023/09/09 01:43:01;;;;;;;9.40;6.55;;;;;;;-144.05;81.09;56865.81;4994283;28;20030;-80
2023/09/09 01:45:27;;;;;;;9.52;7.25;;;;;;;-144.05;81.09;56897.69;4994382;28;20034;-83
2023/09/09 01:47:53;;;;;;;7.88;6.60;;;13.40;99.90;;;-144.05;81.48;56857.34;4994061;28;20030;-83
2023/09/09 01:50:19;;;;;;;9.63;6.80;;;;;;;-144.05;81.44;56870.06;4993264;28;20482;-81
2023/09/09 01:52:45;;;;;;;9.43;7.05;;;13.10;99.90;;;-144.05;81.59;56844.59;4995755;28;20108;-82
2023/09/09 01:55:11;;;;;;;9.57;7.00;;;;;;;-144.05;81.75;56846.72;4998810;28;20489;-80
2023/09/09 01:57:38;;;;;;;8.07;6.70;;;;;;;-144.05;81.89;56880.69;5001955;28;20026;-81
2023/09/09 02:00:08;;;;;;;9.75;7.25;;;13.40;99.90;;;-144.05;82.03;56876.44;5000747;28;20418;-81
2023/09/09 02:02:35;;;;;;;9.30;6.85;;;;;;;-144.05;82.02;56853.09;5002172;28;20037;-81
2023/09/09 02:05:02;;;;;;;8.75;7.32;;;;;;;-144.05;82.22;56859.47;5019949;28;20373;-80
2023/09/09 02:07:28;;;;;;;8.63;6.85;;;;;;;-144.05;82.32;56870.06;5018296;28;20054;-80
2023/09/09 02:09:55;;;;;;;10.70;7.32;;;;;;;-144.05;82.29;56870.06;5019262;28;20051;-83
2023/09/09 02:12:21;;;;;;;12.25;6.90;;;17.10;99.90;;;-144.05;82.34;56853.09;5017970;28;20064;-80
2023/09/09 02:14:47;;;;;;;11.55;6.78;;;13.20;99.90;;;-144.05;82.45;56870.06;5019443;28;20022;-81
2023/09/09 02:17:13;;;;;;;10.75;7.15;;;17.30;99.90;;;-144.05;82.82;56895.56;5001833;28;20030;-81
2023/09/09 02:19:39;;;;;;;9.60;7.45;;;17.00;99.90;;;-144.05;82.55;56865.81;5019609;28;20076;-81
2023/09/09 02:22:05;;;;;;;11.05;8.40;;;16.80;99.90;;;-144.05;82.60;56870.06;5018439;28;20053;-80
2023/09/09 02:24:31;;;;;;;10.65;7.20;;;16.90;99.90;;;-144.05;82.70;56878.56;5017163;28;20038;-78
2023/09/09 02:26:57;;;;;;;9.55;7.50;;;13.20;99.90;;;-144.05;82.74;56906.19;5020076;28;20026;-82
2023/09/09 02:29:23;;;;;;;10.98;7.55;;;13.20;99.90;;;-144.05;82.77;56874.31;5021696;28;20058;-81
2023/09/09 02:31:48;;;;;;;8.25;6.75;;;13.20;99.90;;;-144.05;82.96;56908.31;5018968;28;20029;-82
2023/09/09 02:34:14;;;;;;;12.45;7.63;;;12.80;99.90;;;-144.05;82.97;56891.31;5018617;28;20141;-81
2023/09/09 02:37:16;;;;;;;9.70;7.47;;;17.00;99.90;;;-144.05;83.07;56889.19;5019532;28;20030;-80
2023/09/09 02:39:52;;;;;;;8.00;6.50;;;12.70;99.90;;;-144.05;83.14;56859.47;5023245;28;20485;-81
2023/09/09 02:42:21;;;;;;;;;;;15.80;99.90;;;-144.05;83.03;56850.97;5020569;28;20034;-82
2023/09/09 02:44:51;;;;;;;9.25;6.75;;;12.80;99.90;;;-144.05;82.94;56876.44;5021825;28;20332;-80
2023/09/09 02:47:19;;;;;;;9.25;6.50;;;16.90;99.90;;;-144.05;83.11;56872.19;5020844;28;20065;-79
2023/09/09 02:49:45;;;;;;;10.25;7.35;;;12.60;99.90;;;-144.05;83.27;56887.06;5022957;28;20537;-81
2023/09/09 02:52:13;;;;;;;11.02;8.18;;;16.40;99.90;;;-144.05;83.19;56891.31;5020943;28;20030;-79
2023/09/09 02:54:40;;;;;;;8.52;6.82;;;;;;;-144.05;83.27;56882.81;5024999;28;20037;-78
2023/09/09 02:57:06;;;;;;;9.98;7.00;;;16.50;99.90;;;-144.05;83.41;56867.94;5026224;28;20069;-79
2023/09/09 02:59:34;;;;;;;9.68;6.70;;;16.80;99.90;;;-144.05;83.51;56876.44;5028398;28;20093;-79
2023/09/09 03:02:01;;;;;;;8.68;6.82;;;;;;;-144.05;83.70;56874.31;5012311;28;20030;-78
2023/09/09 03:04:27;;;;;;;8.20;6.43;;;16.90;99.90;;;-144.05;83.66;56891.31;4997767;28;20096;-81
2023/09/09 03:06:54;;;;;;;7.95;6.60;;;;;;;-144.05;83.84;56867.94;4999039;28;20037;-80
2023/09/09 03:09:20;;;;;;;8.25;6.53;;;12.50;99.90;;;-144.05;83.81;56878.56;4980166;28;20113;-80
2023/09/09 03:11:46;;;;;;;9.52;6.80;;;16.70;99.90;;;-144.05;83.70;56904.06;4996988;28;20046;-81
2023/09/09 03:14:12;;;;;;;8.75;7.03;;;17.00;99.90;;;-144.05;83.84;56891.31;4998475;28;20382;-78
2023/09/09 03:16:38;;;;;;;9.00;6.78;;;12.70;99.90;;;-144.05;83.91;56912.56;4979098;28;20093;-77
2023/09/09 03:19:04;;;;;;;10.10;7.20;;;16.10;99.90;;;-144.05;83.89;56880.69;4995186;28;20117;-78
2023/09/09 03:21:31;;;;;;;8.80;6.63;;;;;;;-144.05;83.97;56897.69;4997310;28;20129;-78
2023/09/09 03:23:57;;;;;;;9.73;7.20;;;16.70;99.90;;;-144.05;84.17;56876.44;4996714;28;20460;-78
2023/09/09 03:26:23;;;;;;;8.88;7.18;;;16.90;99.90;;;-144.05;84.18;56867.94;4979694;28;20117;-80
2023/09/09 03:28:51;;;;;;;9.82;7.20;;;16.50;99.90;;;-144.05;84.20;56889.19;4997101;28;20462;-79
2023/09/09 03:31:17;;;;;;;8.85;7.10;;;16.40;99.90;;;-144.05;84.34;56878.56;4997124;28;20398;-79
2023/09/09 03:33:43;;;;;;;10.07;7.30;;;;;;;-144.05;84.31;56884.94;4994957;28;20030;-81
2023/09/09 03:36:10;;;;;;;9.63;7.25;;;;;;;-144.05;84.42;56850.97;4999042;28;20031;-78
2023/09/09 03:38:37;;;;;;;7.75;6.95;;;;;;;-144.05;84.53;56857.34;5000588;28;20489;-78
2023/09/09 03:41:07;;;;;;;12.20;7.60;;;16.40;99.90;;;-144.05;83.66;56876.44;5001725;28;20450;-78
2023/09/09 03:43:40;;;;;;;12.52;7.53;;;16.50;99.90;;;-144.05;83.61;56876.44;4999360;28;20030;-80
2023/09/09 03:46:05;;;;;;;13.38;7.38;;;16.70;99.90;;;-144.05;83.61;56874.31;5000803;28;20030;-82
2023/09/09 03:48:31;;;;;;;8.77;7.22;;;12.60;99.90;;;-144.05;83.47;56904.06;5000618;28;20026;-80
2023/09/09 03:51:02;;;;;;;11.10;7.47;;;12.30;99.90;;;-144.05;83.78;56884.94;4981916;28;20378;-79
2023/09/09 03:53:28;;;;;;;10.85;6.47;;;16.70;99.90;;;-144.05;83.39;56884.94;4998726;28;20456;-81
2023/09/09 03:55:54;;;;;;;8.80;6.85;;;16.00;99.90;;;-144.05;83.47;56870.06;4982346;28;20038;-81
2023/09/09 03:58:21;;;;;;;12.90;7.30;;;16.40;99.90;;;-144.05;83.56;56878.56;5000020;28;20379;-79
2023/09/09 04:00:48;;;;;;;10.82;7.30;;;16.10;99.90;;;-144.05;83.34;56882.81;5004424;28;20090;-78
2023/09/09 04:03:14;;;;;;;7.72;6.50;;;16.00;99.90;;;-144.05;83.27;56891.31;5018550;28;20113;-80
2023/09/09 04:05:41;;;;;;;10.73;7.28;;;16.30;99.90;;;-144.05;83.61;56882.81;5017927;28;20026;-78
2023/09/09 04:08:12;;;;;;;10.52;7.97;;;12.30;99.90;;;-144.05;83.31;56867.94;5018261;28;20030;-80
2023/09/09 04:10:38;;;;;;;11.73;8.00;;;16.30;99.90;;;-144.05;83.68;56870.06;5018551;28;20029;-79
2023/09/09 04:13:04;;;;;;;9.88;6.90;;;;;;;-144.05;83.85;56857.34;5020162;28;20048;-78
2023/09/09 04:15:30;;;;;;;7.57;6.55;;;;;;;-144.05;83.81;56865.81;5017343;28;20152;-77
2023/09/09 04:17:56;;;;;;;11.73;7.95;;;16.50;99.90;;;-144.05;83.86;56874.31;5017244;28;20532;-78
2023/09/09 04:20:23;;;;;;;10.75;6.88;;;16.20;99.90;;;-144.05;84.01;56908.31;5018223;28;20052;-81
2023/09/09 04:22:48;;;;;;;7.25;6.03;;;16.20;99.90;;;-144.05;84.02;56904.06;5000286;28;20037;-79
2023/09/09 04:25:14;;;;;;;8.68;7.28;;;16.00;99.90;;;-144.05;84.12;56906.19;5020957;28;20073;-81
2023/09/09 04:27:40;;;;;;;9.52;6.97;;;12.20;99.90;;;-144.05;84.14;56882.81;5018416;28;20030;-79
2023/09/09 04:30:07;;;;;;;10.32;7.40;;;12.30;99.90;;;-144.05;84.31;56857.34;5017442;28;20034;-79
2023/09/09 04:32:34;;;;;;;8.73;6.65;;;16.50;99.90;;;-144.05;84.32;56872.19;5018053;28;20026;-78
2023/09/09 04:35:00;;;;;;;9.68;7.15;;;;;;;-144.05;84.14;56872.19;5019328;28;20110;-79
2023/09/09 04:37:27;;;;;;;8.65;6.80;;;16.30;99.90;;;-144.05;84.23;56876.44;5002183;28;20030;-79
2023/09/09 04:39:53;;;;;;;8.55;6.63;;;16.30;99.90;;;-144.05;84.39;56887.06;5021245;28;20097;-78
2023/09/09 04:42:21;;;;;;;10.55;7.07;;;12.10;99.90;;;-144.05;84.40;56908.31;5020252;28;20089;-80
2023/09/09 04:44:46;;;;;;;9.48;7.03;;;11.90;99.90;;;-144.05;84.35;56891.31;5017793;28;20515;-81
2023/09/09 04:47:13;;;;;;;8.80;7.50;;;;;;;-144.05;84.23;56874.31;5017685;28;20057;-78
2023/09/09 04:49:38;;;;;;;9.73;7.68;;;16.20;99.90;;;-144.05;84.40;56891.31;5020755;28;20030;-79
2023/09/09 04:52:05;;;;;;;12.80;7.25;;;11.80;99.90;;;-144.05;84.29;56895.56;5018068;28;20460;-78
2023/09/09 04:54:31;;;;;;;11.23;7.15;;;;;;;-144.05;84.48;56891.31;5002013;28;20038;-78
2023/09/09 04:56:57;;;;;;;9.27;6.60;;;;;;;-144.05;84.59;56861.56;5017718;28;20053;-80
2023/09/09 04:59:23;;;;;;;8.35;6.43;;;16.10;99.90;;;-144.05;84.60;56867.94;5001002;28;20477;-80
2023/09/09 05:01:49;;;;;;;8.38;7.00;;;16.10;99.90;;;-144.05;84.47;56891.31;4986473;28;20038;-81
2023/09/09 05:04:15;;;;;;;8.93;6.40;;;16.10;99.90;;;-144.05;84.49;56878.56;4998345;28;20054;-81
2023/09/09 05:06:41;;;;;;;7.07;6.18;;;12.20;99.90;;;-144.05;84.41;56876.44;4997190;28;20053;-82
2023/09/09 05:09:07;;;;;;;8.63;6.50;;;;;;;-144.05;84.51;56876.44;4998557;28;20034;-79
2023/09/09 05:11:33;;;;;;;8.60;6.40;;;16.20;99.90;;;-144.05;84.47;56884.94;4998681;28;20114;-78
2023/09/09 05:13:59;;;;;;;11.00;7.40;;;16.30;99.90;;;-144.05;84.51;56899.81;5000326;28;20026;-79
2023/09/09 05:16:25;;;;;;;7.78;6.68;;;16.20;99.90;;;-144.05;84.40;56878.56;5001331;28;20473;-79
2023/09/09 05:18:51;;;;;;;7.60;6.53;;;;;;;-144.05;84.36;56916.81;4999720;28;20497;-77
2023/09/09 05:21:17;;;;;;;8.30;6.65;;;15.90;99.90;;;-144.05;84.39;56891.31;5000735;28;20105;-79
2023/09/09 05:23:43;;;;;;;8.32;6.28;;;12.30;99.90;;;-144.05;84.25;56889.19;4982831;28;20045;-78
2023/09/09 05:26:09;;;;;;;7.78;6.28;;;15.90;99.90;;;-144.05;84.26;56872.19;4982103;28;20045;-81
2023/09/09 05:28:34;;;;;;;8.65;6.65;;;12.10;99.90;;;-144.05;84.13;56882.81;4985641;28;20027;-80
2023/09/09 05:31:06;;;;;;;8.73;6.68;;;16.20;99.90;;;-144.05;84.54;56889.19;5002006;28;20034;-80
2023/09/09 05:33:32;;;;;;;7.68;6.68;;;15.00;99.90;;;-144.05;84.13;56908.31;5001283;28;20026;-79
2023/09/09 05:35:58;;;;;;;11.55;6.82;;;12.40;99.90;;;-144.05;84.05;56878.56;5001214;28;20398;-79
2023/09/09 05:38:23;;;;;;;7.80;6.25;;;16.50;99.90;;;-144.05;84.46;56850.97;5001302;28;20028;-78
2023/09/09 05:40:49;;;;;;;9.50;7.40;;;16.60;99.90;;;-144.05;84.34;56887.06;5000028;28;20449;-79
2023/09/09 05:43:15;;;;;;;11.15;8.63;;;;;;;-144.05;84.24;56895.56;5001276;28;20081;-80
2023/09/09 05:45:41;;;;;;;10.98;8.25;;;16.90;99.90;;;-144.05;84.04;56893.44;5001139;28;20110;-78
2023/09/09 05:48:07;;;;;;;11.60;8.10;;;;;;;-144.05;83.57;56880.69;5002829;28;20050;-79
2023/09/09 05:50:33;;;;;;;10.63;7.75;;;17.00;99.90;;;-144.05;83.51;56906.19;5000807;28;20301;-81
2023/09/09 05:52:59;;;;;;;8.35;6.80;;;;;;;-144.05;83.61;56874.31;4982056;28;20045;-79
2023/09/09 05:55:25;;;;;;;11.05;7.63;;;17.00;99.90;;;-144.05;83.58;56870.06;4981277;28;20030;-80
2023/09/09 05:57:52;;;;;;;9.00;7.05;;;13.60;99.90;;;-144.05;83.25;56865.81;4999464;28;20028;-81
2023/09/09 06:00:20;;;;;;;8.63;7.50;;;13.50;99.90;;;-144.05;82.99;56874.31;5003519;28;20033;-82
2023/09/09 06:02:46;;;;;;;8.35;6.95;;;14.00;99.90;;;-144.05;83.28;56891.31;5019907;28;20389;-83
2023/09/09 06:05:14;;;;;;;12.52;7.35;;;;;;;-144.05;83.46;56887.06;5024538;28;20026;-82
2023/09/09 06:07:41;;;;;;;9.80;7.03;;;14.40;99.90;;;-144.05;83.59;56882.81;5021693;28;20450;-84
2023/09/09 06:10:07;;;;;;;7.72;6.80;;;14.40;99.90;;;-144.05;83.32;56872.19;5023943;28;20108;-86
2023/09/09 06:12:34;;;;;;;10.23;7.35;;;18.90;99.90;;;-144.05;82.53;56895.56;5025041;28;20026;-85
2023/09/09 06:15:00;;;;;;;8.48;6.90;;;;;;;-144.05;81.07;56887.06;5026977;28;20056;-85
2023/09/09 06:17:25;;;;;;;10.25;7.25;;;15.60;99.90;;;-144.05;78.97;56906.19;5022390;28;20117;-84
2023/09/09 06:19:52;;;;;;;8.70;6.50;;;;;;;-144.05;76.86;56904.06;5019569;28;20084;-87
2023/09/09 06:22:17;;;;;;;7.18;6.20;;;20.10;99.90;;;-144.05;74.36;56891.31;5019787;28;20036;-83
2023/09/09 06:24:43;;;;;;;10.93;6.30;;;20.00;99.90;;;-144.05;71.30;56916.81;5017903;28;20409;-85
2023/09/09 06:27:09;;;;;;;9.00;6.43;;;20.60;99.90;;;-144.05;68.12;56963.53;5016807;28;20041;-85
2023/09/09 06:29:36;;;;;;;8.75;5.60;;;20.60;99.90;;;-144.05;66.71;56961.41;5018837;28;20034;-86
2023/09/09 06:32:03;;;;;;;6.50;5.57;;;;;;;-144.05;65.47;56931.66;5016977;28;20018;-81
2023/09/09 06:34:29;;;;;;;7.18;5.63;;;21.40;99.90;;;-144.05;63.77;56938.03;5019043;28;20167;-80
2023/09/09 06:36:55;;;;;;;7.97;5.65;;;21.80;99.90;;;-144.05;62.16;56950.78;5018882;28;20030;-79
2023/09/09 06:39:21;;;;;;;9.98;5.75;;;22.20;99.90;;;-144.05;61.84;56933.78;5019966;28;20507;-80
2023/09/09 06:41:47;;;;;;;8.10;5.90;;;;;;;-144.05;61.07;56959.28;5022022;28;20033;-80
2023/09/09 06:44:13;;;;;;;7.97;5.70;;;22.00;99.90;;;-144.05;61.27;56957.16;5022689;28;20022;-80
2023/09/09 06:46:39;;;;;;;9.23;5.35;;;22.40;99.90;;;-144.05;60.65;56942.28;5020171;28;20030;-80
2023/09/09 06:49:05;;;;;;;7.70;6.07;;;22.90;99.90;;;-144.05;59.91;56950.78;5021065;28;20049;-78
2023/09/09 06:51:31;;;;;;;8.43;5.40;;;22.80;99.90;;;-144.05;59.57;56965.66;5019157;28;20044;-79
2023/09/09 06:53:57;;;;;;;8.02;5.82;;;22.70;99.90;;;-144.05;59.44;56980.53;5019818;28;20117;-79
2023/09/09 06:56:23;;;;;;;6.15;5.32;;;23.10;99.90;;;-144.05;59.53;56967.78;5018994;28;20040;-78
2023/09/09 06:58:48;;;;;;;6.80;5.53;;;23.30;99.90;;;-144.05;59.53;56967.78;5019703;28;20065;-81
2023/09/09 07:01:14;;;;;;;7.35;5.72;;;19.10;99.90;;;-144.05;59.43;56961.41;4992262;28;20030;-80
2023/09/09 07:03:41;;;;;;;6.63;5.63;;;;;;;-144.05;58.50;56989.00;5001531;28;20497;-82
2023/09/09 07:06:07;;;;;;;9.52;5.78;;;23.90;99.90;;;-144.05;57.63;56984.78;5000004;28;20293;-81
2023/09/09 07:08:33;;;;;;;9.23;6.18;;;20.00;99.90;;;-144.05;56.80;56995.38;4999903;28;20034;-79
2023/09/09 07:10:59;;;;;;;10.52;5.65;;;;;;;-144.05;55.38;56986.91;4989278;28;20106;-81
2023/09/09 07:13:25;;;;;;;6.70;5.68;;;20.20;99.90;;;-144.05;54.17;56993.25;5007889;28;20058;-82
2023/09/09 07:15:53;;;;;;;9.48;5.60;;;20.30;99.90;;;-144.05;53.54;57006.00;4991530;28;20053;-80
2023/09/09 07:18:20;;;;;;;5.80;5.15;;;20.70;99.90;;;-144.05;52.55;56997.50;5009466;28;20093;-80
2023/09/09 07:20:48;;;;;;;6.25;5.20;;;;;;;-144.05;51.99;57025.13;5009882;28;20026;-81
2023/09/09 07:23:18;;;;;;;8.80;5.13;;;25.50;99.90;;;-144.05;51.74;56984.78;4992580;28;20026;-79
2023/09/09 07:25:47;;;;;;;7.28;5.03;;;25.80;99.90;;;-144.05;51.29;57027.25;5010484;28;20054;-81
2023/09/09 07:28:13;;;;;;;8.07;5.32;;;26.00;99.90;;;-144.05;50.70;57027.25;5010105;28;20022;-80
2023/09/09 07:30:39;;;;;;;9.15;6.22;;;21.70;99.90;;;-144.05;50.29;57056.97;5010554;28;20063;-80
2023/09/09 07:33:05;;;;;;;8.23;5.43;;;26.40;99.90;;;-144.05;49.21;57071.84;5010595;28;20073;-79
2023/09/09 07:35:33;;;;;;;6.70;5.57;;;24.80;99.90;;;-144.05;48.73;57069.72;5010339;28;20053;-79
2023/09/09 07:37:58;;;;;;;7.00;4.78;;;26.60;99.90;;;-144.05;48.03;57035.75;5010157;28;20034;-80
2023/09/09 07:40:24;;;;;;;9.93;4.90;;;26.30;99.90;;;-144.05;47.75;57078.22;5010515;28;20038;-79
2023/09/09 07:42:50;;;;;;;9.15;5.32;;;22.60;99.90;;;-144.05;47.29;57084.59;5010362;28;20065;-80
2023/09/09 07:45:19;;;;;;;5.03;4.40;;;;;;;-144.05;46.86;57076.09;5010926;28;20045;-79
2023/09/09 07:47:46;;;;;;;9.82;4.80;;;;;;;-144.05;45.47;57082.47;5010991;28;20446;-82
2023/09/09 07:50:12;;;;;;;6.22;4.60;;;27.60;99.90;;;-144.05;45.30;57103.72;5011426;28;20049;-81
2023/09/09 07:52:38;;;;;;;6.15;5.13;;;23.80;99.90;;;-144.05;44.69;57073.97;5013921;28;20042;-80
2023/09/09 07:55:04;;;;;;;5.70;4.80;;;27.70;99.90;;;-144.05;44.93;57107.97;5039092;23;20068;-81
2023/09/09 07:57:30;;;;;;;7.72;5.07;;;;;;;-144.05;44.54;57112.22;5025607;28;20030;-77
2023/09/09 07:59:56;;;;;;;6.22;4.95;;;;;;;-144.05;44.22;57131.31;5021276;28;20021;-76
2023/09/09 08:02:23;;;;;;;8.40;4.63;;;;;;;-144.05;44.37;57118.59;5024445;28;20121;-77
2023/09/09 08:04:49;;;;;;;7.28;5.20;;;25.30;99.90;;;-144.05;43.86;57116.47;5022155;28;20045;-79
2023/09/09 08:07:15;;;;;;;7.45;5.38;;;24.00;99.90;;;-144.05;44.15;57122.84;5006331;28;20026;-79
2023/09/09 08:09:41;;;;;;;8.10;5.60;;;24.20;99.90;;;-144.05;44.65;57112.22;5020187;28;20046;-77
2023/09/09 08:12:07;;;;;;;6.55;4.63;;;28.80;99.90;;;-144.05;43.87;57141.94;5005545;28;20018;-79
2023/09/09 08:14:33;;;;;;;5.72;4.75;;;29.00;99.90;;;-144.05;43.86;57129.22;5004984;28;20030;-79
2023/09/09 08:16:59;;;;;;;6.35;4.90;;;25.50;99.90;;;-144.05;43.42;57158.94;5003355;28;20030;-79
2023/09/09 08:19:25;;;;;;;7.88;5.38;;;25.90;99.90;;;-144.05;43.17;57146.19;5011089;28;20030;-79
2023/09/09 08:21:51;;;;;;;5.60;4.70;;;25.80;99.90;;;-144.05;42.50;57175.94;5008501;28;20417;-80
2023/09/09 08:24:17;;;;;;;6.88;4.93;;;26.40;99.90;;;-144.05;42.59;57192.94;5006582;28;20114;-78
2023/09/09 08:26:43;;;;;;;7.05;4.53;;;;;;;-144.05;42.48;57180.19;5004616;28;20023;-79
2023/09/09 08:29:09;;;;;;;7.32;5.00;;;;;;;-144.05;42.45;57163.19;5019697;28;20027;-80
2023/09/09 08:31:36;;;;;;;6.72;5.38;;;;;;;-144.05;41.27;57199.31;5003632;28;20090;-82
2023/09/09 08:34:02;;;;;;;5.45;4.95;;;29.50;99.90;;;-144.05;42.01;57188.69;5006988;28;20038;-78
2023/09/09 08:36:28;;;;;;;7.82;4.40;;;;;;;-144.05;41.96;57205.66;5008309;28;20022;-80
2023/09/09 08:38:56;;;;;;;5.95;4.90;;;30.10;99.90;;;-144.05;42.16;57212.03;5007872;28;20030;-81
2023/09/09 08:41:43;;;;;;;7.10;5.00;;;29.90;99.90;;;-144.05;41.38;57218.41;5008702;28;20086;-81
2023/09/09 08:44:44;;;;;;;7.05;4.47;;;30.20;99.90;;;-144.05;41.30;57222.66;5023450;28;20036;-82
2023/09/09 08:47:11;;;;;;;7.28;4.22;;;26.70;99.90;;;-144.05;41.59;57241.78;5007533;28;20119;-81
2023/09/09 08:49:43;;;;;;;6.40;5.00;;;30.40;99.90;;;-144.05;40.27;57256.66;5020663;28;20037;-78
2023/09/09 08:52:24;;;;;;;5.32;4.70;;;27.40;99.90;;;-144.05;40.54;57292.75;5005892;28;20435;-82
2023/09/09 08:54:52;;;;;;;8.95;5.30;;;30.30;99.90;;;-144.05;40.08;57275.78;5005819;28;20030;-80
2023/09/09 08:57:18;;;;;;;5.35;4.57;;;31.00;99.90;;;-144.05;40.06;57233.28;5006023;28;20054;-80
2023/09/09 08:59:48;;;;;;;6.70;4.70;;;31.30;99.90;;;-144.05;39.10;57246.03;5005041;28;20034;-82
2023/09/09 09:02:15;;;;;;;6.38;5.20;;;31.20;99.90;;;-144.05;39.12;57288.50;5021287;28;20030;-82
2023/09/09 09:04:42;;;;;;;7.38;4.70;;;26.60;99.90;;;-144.05;39.70;57235.41;5003553;28;20034;-82
2023/09/09 09:07:08;;;;;;;7.88;5.28;;;30.90;99.90;;;-144.05;38.96;57286.38;5005566;28;20026;-78
2023/09/09 09:09:35;;;;;;;5.80;4.82;;;31.10;99.90;;;-144.05;38.95;57294.88;5020074;28;20030;-80
2023/09/09 09:12:04;;;;;;;8.93;4.80;;;30.70;99.90;;;-144.05;38.41;57286.38;5007046;28;20058;-80
2023/09/09 09:14:30;;;;;;;6.65;4.82;;;31.60;99.90;;;-144.05;37.54;57282.16;5007683;28;20494;-80
2023/09/09 09:16:56;;;;;;;6.90;5.28;;;31.70;99.90;;;-144.05;38.52;57305.50;5007607;28;20064;-80
2023/09/09 09:19:30;;;;;;;6.47;4.93;;;27.40;99.90;;;-144.05;37.98;57322.50;5007850;28;20034;-80
2023/09/09 09:21:59;;;;;;;7.57;5.15;;;30.00;99.90;;;-144.05;37.82;57299.13;5007467;28;20037;-80
2023/09/09 09:24:28;;;;;;;6.97;5.15;;;27.40;99.90;;;-144.05;37.87;57290.63;5006865;28;20026;-81
2023/09/09 09:26:56;;;;;;;7.47;4.72;;;27.40;99.90;;;-144.05;37.36;57333.13;5006322;28;20022;-82
2023/09/09 09:29:22;;;;;;;10.18;5.50;;;32.60;99.90;;;-144.05;36.75;57337.38;5003795;28;20034;-81
2023/09/09 09:31:54;;;;;;;10.68;5.47;;;27.40;99.90;;;-144.05;36.79;57345.88;5006062;28;20026;-80
2023/09/09 09:34:33;;;;;;;11.13;5.70;;;30.60;99.90;;;-144.05;37.06;57341.63;5007532;28;20045;-81
2023/09/09 09:37:10;;;;;;;8.48;4.82;;;28.90;99.90;;;-144.05;36.92;57337.38;5007096;28;20490;-80
2023/09/09 09:39:37;;;;;;;9.40;5.22;;;32.30;99.90;;;-144.05;36.68;57348.00;5023347;28;20023;-82
2023/09/09 09:42:04;;;;;;;8.13;5.28;;;32.00;99.90;;;-144.05;36.53;57345.88;5007407;28;20123;-80
2023/09/09 09:44:30;;;;;;;7.88;5.18;;;32.40;99.90;;;-144.05;36.78;57337.38;5006603;28;20034;-81
2023/09/09 09:47:03;;;;;;;10.93;5.90;;;28.10;99.90;;;-144.05;36.10;57358.63;5007939;28;20183;-80
2023/09/09 09:49:44;;;;;;;8.93;5.72;;;32.10;99.90;;;-144.05;37.16;57360.75;5003955;28;20358;-80
2023/09/09 09:52:24;;;;;;;7.57;5.05;;;32.30;99.90;;;-144.05;36.93;57358.63;5002905;28;20026;-81
2023/09/09 09:54:53;;;;;;;8.88;5.57;;;28.70;99.90;;;-144.05;36.95;57354.38;5018055;28;20030;-82
2023/09/09 09:57:21;;;;;;;10.73;5.60;;;31.00;99.90;;;-144.05;36.40;57379.84;5003129;28;20030;-79
2023/09/09 09:59:47;;;;;;;7.88;5.35;;;33.10;99.90;;;-144.05;36.47;57379.84;5002373;28;20100;-80
2023/09/09 10:02:15;;;;;;;12.93;5.65;;;33.00;99.90;;;-144.05;36.71;57407.47;5002666;28;20056;-81
2023/09/09 10:04:42;;;;;;;8.98;5.45;;;31.10;99.90;;;-144.05;36.59;57328.88;5000699;28;20038;-80
2023/09/09 10:07:17;;;;;;;10.48;5.10;;;31.00;99.90;;;-144.05;36.61;57350.13;5003573;28;20022;-84
2023/09/09 10:10:18;;;;;;;8.57;5.55;;;33.00;99.90;;;-144.05;36.61;57365.00;5001207;28;20049;-79
2023/09/09 10:13:30;;;;;;;6.15;4.90;;;27.80;99.90;;;-144.05;35.71;57394.72;4992168;28;20034;-82
2023/09/09 10:15:57;;;;;;;6.18;4.90;;;28.80;99.90;;;-144.05;36.51;57384.09;5008343;28;20033;-83
2023/09/09 10:18:27;;;;;;;11.45;6.30;;;31.40;99.90;;;-144.05;36.33;57379.84;5006517;28;20037;-81
2023/09/09 10:20:53;;;;;;;7.60;5.07;;;28.00;99.90;;;-144.05;35.80;57358.63;5004560;28;20101;-81